Time;durP1;ratioP1;P1;durP2;ratioP2;P2;SDS_P1;SDS_P2;PMS_P1;PMS_P2;Temp;Humidity;BMP_temperature;BMP_pressure;BME280_temperature;BME280_humidity;BME280_pressure;Samples;Min_cycle;Max_cycle;Signal;HPM_P1;HPM_P2
2022/11/16 00:01:32;;;;;;;13.45;9.98;;;;;;;;;;6172748;23;20480;-76
2022/11/16 00:03:59;;;;;;;17.70;11.23;;;;;;;;;;6174636;23;20464;-76
2022/11/16 00:06:26;;;;;;;16.05;11.20;;;;;;;;;;6173700;23;20076;-76
2022/11/16 00:11:40;;;;;;;16.10;11.45;;;;;;;;;;6176413;23;20032;-76
2022/11/16 00:14:06;;;;;;;16.42;11.05;;;;;;;;;;6172239;23;20524;-76
2022/11/16 00:16:32;;;;;;;16.42;11.73;;;;;;;;;;6174437;23;20021;-76
2022/11/16 00:18:59;;;;;;;19.00;11.93;;;;;;;;;;6174531;23;20032;-77
2022/11/16 00:21:26;;;;;;;18.80;12.48;;;;;;;;;;6175156;23;20036;-77
2022/11/16 00:23:53;;;;;;;19.60;12.85;;;;;;;;;;6174569;23;20025;-77
2022/11/16 00:26:19;;;;;;;16.35;12.40;;;;;;;;;;6174748;23;20039;-77
2022/11/16 00:28:45;;;;;;;17.27;11.88;;;;;;;;;;6176012;23;20548;-77
2022/11/16 00:31:11;;;;;;;20.20;11.98;;;;;;;;;;6174240;23;20303;-77
2022/11/16 00:33:38;;;;;;;19.83;12.18;;;;;;;;;;6176492;23;20274;-78
2022/11/16 00:36:05;;;;;;;18.73;12.43;;;;;;;;;;6172020;23;20025;-79
2022/11/16 00:38:32;;;;;;;18.65;11.98;;;;;;;;;;6174627;23;20430;-80
2022/11/16 00:40:58;;;;;;;18.25;12.00;;;;;;;;;;6174342;23;20025;-80
2022/11/16 00:43:24;;;;;;;16.15;12.07;;;;;;;;;;6172341;23;20112;-79
2022/11/16 00:45:50;;;;;;;20.77;12.88;;;;;;;;;;6174705;23;20078;-78
2022/11/16 00:48:16;;;;;;;21.85;12.23;;;;;;;;;;6176550;23;20028;-77
2022/11/16 00:50:44;;;;;;;20.15;12.57;;;;;;;;;;6175232;23;20342;-77
2022/11/16 00:53:12;;;;;;;20.42;12.35;;;;;;;;;;6175264;23;20032;-77
2022/11/16 00:55:38;;;;;;;17.33;12.18;;;;;;;;;;6176035;23;20092;-77
2022/11/16 00:58:04;;;;;;;19.65;13.02;;;;;;;;;;6170796;23;20120;-78
2022/11/16 01:00:30;;;;;;;20.48;13.43;;;;;;;;;;6172055;23;20092;-78
2022/11/16 01:02:56;;;;;;;20.90;14.10;;;;;;;;;;6175166;23;20083;-79
2022/11/16 01:05:23;;;;;;;21.70;15.20;;;;;;;;;;6172797;23;20108;-77
2022/11/16 01:07:49;;;;;;;24.48;15.15;;;;;;;;;;6173869;23;20036;-78
2022/11/16 01:10:17;;;;;;;20.88;15.52;;;;;;;;;;6171264;23;20452;-80
2022/11/16 01:12:44;;;;;;;24.88;16.17;;;;;;;;;;6173300;23;20177;-79
2022/11/16 01:15:10;;;;;;;23.20;15.20;;;;;;;;;;6171060;23;20021;-79
2022/11/16 01:17:40;;;;;;;24.65;16.52;;;;;;;;;;6173467;23;20033;-80
2022/11/16 01:20:07;;;;;;;28.80;17.80;;;;;;;;;;6173230;23;20072;-79
2022/11/16 01:22:37;;;;;;;25.33;17.05;;;;;;;;;;6172583;23;20495;-80
2022/11/16 01:25:03;;;;;;;28.00;18.23;;;;;;;;;;6172893;23;20358;-80
2022/11/16 01:27:29;;;;;;;29.38;18.55;;;;;;;;;;6177015;23;20083;-79
2022/11/16 01:29:56;;;;;;;27.50;18.38;;;;;;;;;;6176446;23;20021;-78
2022/11/16 01:32:22;;;;;;;30.23;18.55;;;;;;;;;;6173786;23;20040;-78
2022/11/16 01:34:48;;;;;;;32.53;18.58;;;;;;;;;;6174252;23;20025;-79
2022/11/16 01:37:15;;;;;;;27.65;18.13;;;;;;;;;;6171605;23;20029;-77
2022/11/16 01:39:41;;;;;;;27.02;18.60;;;;;;;;;;6174360;23;20029;-78
2022/11/16 01:42:07;;;;;;;30.45;18.98;;;;;;;;;;6173611;23;20052;-78
2022/11/16 01:44:33;;;;;;;30.27;18.33;;;;;;;;;;6173136;23;20469;-77
2022/11/16 01:46:59;;;;;;;28.83;19.48;;;;;;;;;;6173327;23;20420;-77
2022/11/16 01:49:28;;;;;;;28.50;18.40;;;;;;;;;;6174148;23;20028;-76
2022/11/16 01:51:56;;;;;;;29.42;18.90;;;;;;;;;;6174598;23;20481;-77
2022/11/16 01:54:23;;;;;;;27.10;19.13;;;;;;;;;;6172572;23;20027;-77
2022/11/16 01:56:50;;;;;;;28.17;19.17;;;;;;;;;;6176012;23;20017;-77
2022/11/16 01:59:16;;;;;;;26.70;18.48;;;;;;;;;;6172132;23;20028;-76
2022/11/16 02:01:43;;;;;;;28.45;18.40;;;;;;;;;;6171453;23;20087;-76
2022/11/16 02:04:12;;;;;;;28.38;19.30;;;;;;;;;;6175345;23;20099;-76
2022/11/16 02:06:38;;;;;;;29.23;19.27;;;;;;;;;;6174088;23;20055;-77
2022/11/16 02:12:10;;;;;;;31.15;20.38;;;;;;;;;;6174485;23;20025;-76
2022/11/16 02:14:39;;;;;;;29.77;19.35;;;;;;;;;;6174409;23;20083;-77
2022/11/16 02:17:05;;;;;;;29.45;20.30;;;;;;;;;;6176060;23;20072;-77
2022/11/16 02:19:58;;;;;;;32.20;20.35;;;;;;;;;;6174946;23;20017;-76
2022/11/16 02:22:36;;;;;;;31.13;20.20;;;;;;;;;;6174143;23;20039;-77
2022/11/16 02:25:08;;;;;;;32.05;20.77;;;;;;;;;;6178725;23;21286;-76
2022/11/16 02:27:36;;;;;;;31.90;20.08;;;;;;;;;;6178738;23;20048;-76
2022/11/16 02:30:04;;;;;;;36.05;20.98;;;;;;;;;;6173990;23;20079;-76
2022/11/16 02:32:30;;;;;;;31.48;20.52;;;;;;;;;;6176714;23;20456;-77
2022/11/16 02:35:00;;;;;;;33.83;21.00;;;;;;;;;;6173151;23;20021;-76
2022/11/16 02:37:28;;;;;;;39.08;21.67;;;;;;;;;;6174228;23;20025;-77
2022/11/16 02:39:57;;;;;;;35.38;21.88;;;;;;;;;;6175546;23;20021;-76
2022/11/16 02:42:27;;;;;;;33.85;21.52;;;;;;;;;;6175901;23;20096;-77
2022/11/16 02:44:54;;;;;;;39.08;22.25;;;;;;;;;;6173049;23;20021;-76
2022/11/16 02:47:22;;;;;;;35.35;22.30;;;;;;;;;;6176433;23;20152;-77
2022/11/16 02:49:51;;;;;;;35.40;21.25;;;;;;;;;;6176206;23;20029;-77
2022/11/16 02:52:17;;;;;;;31.60;20.90;;;;;;;;;;6175962;23;20052;-76
2022/11/16 02:54:43;;;;;;;32.90;20.88;;;;;;;;;;6176042;23;20032;-76
2022/11/16 02:57:09;;;;;;;34.80;21.20;;;;;;;;;;6175668;23;20117;-76
2022/11/16 02:59:38;;;;;;;32.35;21.33;;;;;;;;;;6175212;23;20021;-77
2022/11/16 03:02:16;;;;;;;35.17;22.00;;;;;;;;;;6172289;23;20396;-77
2022/11/16 03:04:47;;;;;;;33.17;21.17;;;;;;;;;;6170618;23;20167;-77
2022/11/16 03:07:14;;;;;;;31.63;20.85;;;;;;;;;;6174916;23;20029;-77
2022/11/16 03:09:41;;;;;;;31.67;20.48;;;;;;;;;;6173164;23;20052;-77
2022/11/16 03:12:10;;;;;;;37.30;22.83;;;;;;;;;;6175341;23;20028;-76
2022/11/16 03:14:42;;;;;;;33.40;21.23;;;;;;;;;;6172766;23;20032;-77
2022/11/16 03:17:15;;;;;;;30.33;20.23;;;;;;;;;;6175326;23;20033;-77
2022/11/16 03:19:43;;;;;;;31.52;20.60;;;;;;;;;;6175937;23;20033;-75
2022/11/16 03:22:25;;;;;;;27.83;19.25;;;;;;;;;;6175586;23;20345;-75
2022/11/16 03:24:52;;;;;;;29.23;19.42;;;;;;;;;;6176847;23;20028;-76
2022/11/16 03:27:28;;;;;;;31.05;20.73;;;;;;;;;;6174691;23;20033;-76
2022/11/16 03:29:59;;;;;;;30.15;20.30;;;;;;;;;;6174880;23;20302;-75
2022/11/16 03:32:44;;;;;;;30.75;19.48;;;;;;;;;;6172277;23;20104;-77
2022/11/16 03:35:26;;;;;;;31.02;20.25;;;;;;;;;;6174987;23;20024;-77
2022/11/16 03:37:53;;;;;;;32.35;20.80;;;;;;;;;;6172753;23;20024;-76
2022/11/16 03:40:20;;;;;;;31.48;20.10;;;;;;;;;;6173931;23;20021;-78
2022/11/16 03:42:48;;;;;;;30.65;19.98;;;;;;;;;;6174233;23;20059;-77
2022/11/16 03:45:15;;;;;;;32.00;20.60;;;;;;;;;;6172389;23;20353;-76
2022/11/16 03:47:41;;;;;;;27.73;19.75;;;;;;;;;;6176624;23;20013;-76
2022/11/16 03:50:08;;;;;;;36.00;20.42;;;;;;;;;;6174511;23;20032;-76
2022/11/16 03:52:35;;;;;;;33.30;20.98;;;;;;;;;;6173555;23;20023;-75
2022/11/16 03:55:01;;;;;;;27.33;18.27;;;;;;;;;;6175435;23;20020;-77
2022/11/16 03:57:27;;;;;;;28.00;18.88;;;;;;;;;;6175468;23;20031;-76
2022/11/16 03:59:53;;;;;;;28.27;19.83;;;;;;;;;;6173430;23;20664;-75
2022/11/16 04:02:19;;;;;;;32.28;20.65;;;;;;;;;;6175081;23;20405;-74
2022/11/16 04:24:14;;;;;;;30.70;20.80;;;;;;;;;;6175527;23;20021;-76
2022/11/16 04:29:26;;;;;;;30.98;20.25;;;;;;;;;;6173163;23;20031;-76
2022/11/16 04:40:08;;;;;;;29.17;19.77;;;;;;;;;;6173573;23;20024;-75
2022/11/16 04:42:34;;;;;;;29.67;18.98;;;;;;;;;;6175198;23;20025;-75
2022/11/16 04:47:49;;;;;;;30.48;20.80;;;;;;;;;;6119558;23;20025;-76
2022/11/16 04:50:16;;;;;;;32.45;21.08;;;;;;;;;;6172459;23;20048;-76
2022/11/16 04:52:43;;;;;;;32.22;21.65;;;;;;;;;;6174577;23;20059;-76
2022/11/16 04:55:09;;;;;;;33.38;22.45;;;;;;;;;;6174417;23;20095;-77
2022/11/16 04:57:35;;;;;;;35.28;21.52;;;;;;;;;;6173771;23;20167;-76
2022/11/16 05:00:01;;;;;;;38.42;22.55;;;;;;;;;;6174609;23;20029;-74
2022/11/16 05:02:27;;;;;;;40.58;22.20;;;;;;;;;;6175229;23;20021;-75
2022/11/16 05:04:53;;;;;;;31.35;21.92;;;;;;;;;;6177517;23;20024;-75
2022/11/16 05:07:19;;;;;;;30.65;20.73;;;;;;;;;;6174048;23;20672;-74
2022/11/16 05:09:47;;;;;;;34.88;21.42;;;;;;;;;;6176996;23;20449;-76
2022/11/16 05:12:17;;;;;;;36.92;22.95;;;;;;;;;;6175877;23;20040;-76
2022/11/16 05:14:43;;;;;;;34.25;21.92;;;;;;;;;;6172018;23;20385;-76
2022/11/16 05:17:09;;;;;;;33.75;21.77;;;;;;;;;;6172667;23;20029;-75
2022/11/16 05:22:20;;;;;;;44.65;23.38;;;;;;;;;;6173476;23;20445;-78
2022/11/16 05:24:46;;;;;;;37.15;20.63;;;;;;;;;;6175790;23;20021;-77
2022/11/16 05:27:14;;;;;;;28.75;15.68;;;;;;;;;;6173543;23;20524;-77
2022/11/16 05:29:40;;;;;;;19.77;13.40;;;;;;;;;;6174761;23;20459;-76
2022/11/16 05:32:07;;;;;;;16.80;11.55;;;;;;;;;;6172734;23;20112;-77
2022/11/16 05:34:33;;;;;;;21.85;12.48;;;;;;;;;;6175051;23;20104;-76
2022/11/16 05:36:59;;;;;;;24.13;14.82;;;;;;;;;;6177688;23;20025;-76
2022/11/16 05:39:25;;;;;;;28.38;15.38;;;;;;;;;;6176130;23;20027;-76
2022/11/16 05:41:51;;;;;;;28.77;17.40;;;;;;;;;;6176129;23;20067;-76
2022/11/16 05:44:18;;;;;;;27.55;17.45;;;;;;;;;;6176097;23;20043;-77
2022/11/16 05:46:44;;;;;;;35.55;19.05;;;;;;;;;;6171597;23;20320;-76
2022/11/16 05:49:11;;;;;;;33.10;19.90;;;;;;;;;;6175296;23;20084;-77
2022/11/16 05:51:38;;;;;;;31.90;20.00;;;;;;;;;;6178566;23;20025;-77
2022/11/16 05:54:04;;;;;;;27.88;19.30;;;;;;;;;;6176065;23;20136;-78
2022/11/16 05:56:30;;;;;;;40.45;21.48;;;;;;;;;;6172587;23;20021;-78
2022/11/16 05:58:57;;;;;;;33.10;19.83;;;;;;;;;;6170829;23;20025;-79
2022/11/16 06:01:26;;;;;;;37.92;20.33;;;;;;;;;;6174006;23;20100;-78
2022/11/16 06:03:52;;;;;;;34.95;19.17;;;;;;;;;;6177996;23;20028;-76
2022/11/16 06:06:19;;;;;;;38.13;19.77;;;;;;;;;;6173370;23;20052;-78
2022/11/16 06:08:46;;;;;;;34.72;19.55;;;;;;;;;;6174842;23;20017;-75
2022/11/16 06:11:22;;;;;;;26.95;17.55;;;;;;;;;;6175318;23;20037;-76
2022/11/16 06:13:48;;;;;;;31.00;18.02;;;;;;;;;;6172770;23;20081;-78
2022/11/16 06:16:14;;;;;;;26.58;17.45;;;;;;;;;;6175385;23;20033;-78
2022/11/16 06:18:41;;;;;;;29.63;16.98;;;;;;;;;;6175512;23;20056;-77
2022/11/16 06:21:08;;;;;;;29.52;17.38;;;;;;;;;;6172083;23;20079;-79
2022/11/16 06:23:34;;;;;;;29.77;15.73;;;;;;;;;;6177170;23;20021;-78
2022/11/16 06:26:01;;;;;;;25.70;15.57;;;;;;;;;;6176462;23;20021;-71
2022/11/16 06:28:27;;;;;;;29.48;15.75;;;;;;;;;;6175190;23;20017;-71
2022/11/16 06:30:53;;;;;;;29.33;15.90;;;;;;;;;;6175100;23;20025;-68
2022/11/16 06:33:19;;;;;;;28.33;15.55;;;;;;;;;;6175083;23;20357;-70
2022/11/16 06:35:45;;;;;;;46.63;17.63;;;;;;;;;;6178376;23;20142;-68
2022/11/16 06:38:17;;;;;;;43.72;17.88;;;;;;;;;;6177931;23;20025;-68
2022/11/16 06:40:43;;;;;;;26.77;14.43;;;;;;;;;;6178403;23;20032;-70
2022/11/16 06:43:09;;;;;;;28.50;15.60;;;;;;;;;;6176152;23;20025;-70
2022/11/16 06:45:35;;;;;;;26.83;14.73;;;;;;;;;;6179336;23;20103;-68
2022/11/16 06:48:01;;;;;;;29.30;15.27;;;;;;;;;;6178111;23;20133;-70
2022/11/16 06:50:28;;;;;;;29.27;15.23;;;;;;;;;;6177079;23;20025;-75
2022/11/16 06:52:54;;;;;;;25.48;16.33;;;;;;;;;;6178534;23;20589;-75
2022/11/16 06:55:20;;;;;;;34.50;17.50;;;;;;;;;;6177374;23;20056;-75
2022/11/16 06:57:46;;;;;;;29.35;16.90;;;;;;;;;;6176733;23;20325;-75
2022/11/16 07:00:12;;;;;;;26.55;16.85;;;;;;;;;;6175428;23;20025;-70
2022/11/16 07:02:39;;;;;;;31.05;18.85;;;;;;;;;;6177767;23;20025;-74
2022/11/16 07:05:06;;;;;;;32.97;18.00;;;;;;;;;;6178344;23;20044;-75
2022/11/16 07:07:32;;;;;;;29.58;16.85;;;;;;;;;;6179545;23;20108;-75
2022/11/16 07:09:58;;;;;;;26.65;15.85;;;;;;;;;;6177599;23;20037;-75
2022/11/16 07:12:25;;;;;;;28.95;15.30;;;;;;;;;;6178171;23;20021;-75
2022/11/16 07:14:51;;;;;;;29.75;16.10;;;;;;;;;;6176429;23;20095;-75
2022/11/16 07:17:17;;;;;;;27.73;16.90;;;;;;;;;;6175504;23;20029;-75
2022/11/16 07:19:43;;;;;;;27.70;15.07;;;;;;;;;;6179235;23;20024;-75
2022/11/16 07:22:09;;;;;;;23.05;14.25;;;;;;;;;;6178792;23;20021;-73
2022/11/16 07:24:35;;;;;;;29.60;16.00;;;;;;;;;;6176565;23;20017;-73
2022/11/16 07:27:01;;;;;;;22.63;13.25;;;;;;;;;;6178422;23;20044;-73
2022/11/16 07:29:28;;;;;;;20.75;12.68;;;;;;;;;;6176371;23;20021;-75
2022/11/16 07:31:54;;;;;;;22.75;14.82;;;;;;;;;;6175701;23;20045;-72
2022/11/16 07:34:20;;;;;;;25.67;14.50;;;;;;;;;;6177754;23;20074;-72
2022/11/16 07:36:46;;;;;;;25.83;15.23;;;;;;;;;;6179518;23;20021;-72
2022/11/16 07:39:12;;;;;;;21.33;13.63;;;;;;;;;;6176806;23;20029;-72
2022/11/16 07:41:38;;;;;;;22.73;13.45;;;;;;;;;;6176870;23;20408;-74
2022/11/16 07:44:04;;;;;;;29.05;14.57;;;;;;;;;;6173738;23;20098;-71
2022/11/16 07:46:30;;;;;;;23.33;12.95;;;;;;;;;;6179059;23;20345;-72
2022/11/16 07:48:57;;;;;;;20.25;13.30;;;;;;;;;;6177658;23;20021;-71
2022/11/16 07:51:23;;;;;;;20.02;12.45;;;;;;;;;;6178622;23;20468;-73
2022/11/16 07:53:52;;;;;;;19.83;12.25;;;;;;;;;;6175778;23;20083;-73
2022/11/16 07:56:18;;;;;;;21.58;13.55;;;;;;;;;;6176716;23;20028;-75
2022/11/16 07:58:44;;;;;;;22.67;14.48;;;;;;;;;;6176199;23;20095;-74
2022/11/16 08:01:14;;;;;;;28.70;15.05;;;;;;;;;;6174092;23;20450;-75
2022/11/16 08:03:41;;;;;;;33.20;15.43;;;;;;;;;;6173883;23;20029;-75
2022/11/16 08:06:10;;;;;;;22.35;14.48;;;;;;;;;;6176778;23;20088;-74
2022/11/16 08:08:37;;;;;;;27.17;15.57;;;;;;;;;;6178224;23;20252;-75
2022/11/16 08:11:04;;;;;;;24.75;14.70;;;;;;;;;;6174385;23;20056;-74
2022/11/16 08:13:32;;;;;;;26.05;13.90;;;;;;;;;;6176876;23;20017;-74
2022/11/16 08:16:02;;;;;;;30.80;15.20;;;;;;;;;;6175624;23;20283;-74
2022/11/16 08:18:29;;;;;;;23.38;14.40;;;;;;;;;;6175939;23;20484;-75
2022/11/16 08:20:55;;;;;;;38.70;16.88;;;;;;;;;;6174864;23;20045;-75
2022/11/16 08:23:21;;;;;;;31.85;15.23;;;;;;;;;;6177993;23;20029;-75
2022/11/16 08:25:47;;;;;;;25.65;14.95;;;;;;;;;;6175009;23;20083;-75
2022/11/16 08:28:13;;;;;;;31.45;16.00;;;;;;;;;;6176106;23;20021;-74
2022/11/16 08:30:40;;;;;;;38.75;18.02;;;;;;;;;;6174009;23;20467;-75
2022/11/16 08:33:08;;;;;;;31.58;15.77;;;;;;;;;;6172686;23;20477;-76
2022/11/16 08:35:34;;;;;;;23.80;15.43;;;;;;;;;;6176430;23;20104;-76
2022/11/16 08:38:00;;;;;;;24.25;15.13;;;;;;;;;;6174724;23;20560;-74
2022/11/16 08:40:27;;;;;;;25.52;15.80;;;;;;;;;;6176983;23;20025;-76
2022/11/16 08:42:55;;;;;;;28.33;15.32;;;;;;;;;;6176484;23;20025;-74
2022/11/16 08:45:25;;;;;;;30.20;18.13;;;;;;;;;;6176865;23;20172;-74
2022/11/16 08:47:51;;;;;;;20.58;13.40;;;;;;;;;;6179736;23;20120;-74
2022/11/16 08:50:18;;;;;;;23.00;14.25;;;;;;;;;;6183229;23;20461;-74
2022/11/16 08:52:44;;;;;;;26.02;13.93;;;;;;;;;;6185077;23;20697;-74
2022/11/16 08:55:12;;;;;;;22.63;13.75;;;;;;;;;;6176914;23;20107;-74
2022/11/16 08:57:39;;;;;;;26.88;15.27;;;;;;;;;;6179657;23;20031;-75
2022/11/16 09:00:05;;;;;;;26.17;14.73;;;;;;;;;;6178637;23;20021;-75
2022/11/16 09:02:31;;;;;;;31.83;18.38;;;;;;;;;;6177836;23;20421;-74
2022/11/16 09:04:58;;;;;;;27.45;16.40;;;;;;;;;;6179238;23;20503;-74
2022/11/16 09:07:24;;;;;;;29.30;16.73;;;;;;;;;;6178929;23;20087;-74
2022/11/16 09:09:50;;;;;;;30.65;17.50;;;;;;;;;;6173301;23;20292;-74
2022/11/16 09:12:16;;;;;;;30.13;17.38;;;;;;;;;;6174782;23;20084;-75
2022/11/16 09:14:42;;;;;;;31.25;18.70;;;;;;;;;;6175618;23;20036;-74
2022/11/16 09:17:08;;;;;;;32.53;19.23;;;;;;;;;;6169052;23;20383;-73
2022/11/16 09:19:34;;;;;;;35.47;20.23;;;;;;;;;;6172700;23;20017;-74
2022/11/16 09:22:00;;;;;;;37.75;21.17;;;;;;;;;;6174657;23;20029;-74
2022/11/16 09:24:26;;;;;;;36.55;20.02;;;;;;;;;;6178194;23;20028;-75
2022/11/16 09:26:55;;;;;;;40.40;21.00;;;;;;;;;;6178955;23;20031;-73
2022/11/16 09:29:21;;;;;;;36.72;19.80;;;;;;;;;;6176795;23;20029;-74
2022/11/16 09:31:47;;;;;;;31.10;20.40;;;;;;;;;;6176456;23;20350;-73
2022/11/16 09:34:14;;;;;;;38.53;20.92;;;;;;;;;;6174034;23;20060;-73
2022/11/16 09:36:40;;;;;;;37.72;21.55;;;;;;;;;;6178090;23;20029;-73
2022/11/16 09:39:06;;;;;;;27.63;19.30;;;;;;;;;;6178438;23;20025;-73
2022/11/16 09:41:55;;;;;;;36.33;21.10;;;;;;;;;;6176891;23;20017;-72
2022/11/16 09:44:27;;;;;;;28.15;19.70;;;;;;;;;;6170634;23;20049;-72
2022/11/16 09:46:55;;;;;;;29.10;19.48;;;;;;;;;;6177294;23;20017;-73
2022/11/16 09:49:42;;;;;;;27.23;18.15;;;;;;;;;;6189360;23;20516;-72
2022/11/16 09:52:10;;;;;;;27.52;18.88;;;;;;;;;;6175860;23;20024;-70
2022/11/16 09:54:38;;;;;;;27.92;17.33;;;;;;;;;;6175088;23;20021;-72
2022/11/16 09:57:06;;;;;;;22.30;15.52;;;;;;;;;;6176568;23;20385;-72
2022/11/16 09:59:45;;;;;;;25.75;16.90;;;;;;;;;;6174328;23;20405;-72
2022/11/16 10:02:18;;;;;;;23.98;14.85;;;;;;;;;;6174610;23;20032;-73
2022/11/16 10:04:50;;;;;;;20.60;14.48;;;;;;;;;;6175454;23;20021;-71
2022/11/16 10:07:19;;;;;;;23.83;14.10;;;;;;;;;;6178959;23;20021;-72
2022/11/16 10:09:46;;;;;;;19.52;13.43;;;;;;;;;;6176542;23;20311;-71
2022/11/16 10:12:30;;;;;;;21.23;12.60;;;;;;;;;;6175939;23;20025;-72
2022/11/16 10:15:06;;;;;;;23.13;14.23;;;;;;;;;;6176691;23;20021;-72
2022/11/16 10:17:41;;;;;;;23.20;14.93;;;;;;;;;;6175282;23;20314;-75
2022/11/16 10:20:10;;;;;;;20.00;12.85;;;;;;;;;;6174558;23;20036;-76
2022/11/16 10:22:36;;;;;;;20.17;12.25;;;;;;;;;;6174323;23;20647;-76
2022/11/16 10:25:11;;;;;;;19.40;12.80;;;;;;;;;;6173761;23;20048;-70
2022/11/16 10:27:41;;;;;;;21.33;11.70;;;;;;;;;;6176696;23;20107;-71
2022/11/16 10:30:13;;;;;;;18.58;10.70;;;;;;;;;;6175253;23;20108;-71
2022/11/16 10:33:05;;;;;;;15.13;9.70;;;;;;;;;;6176060;23;20028;-72
2022/11/16 10:35:40;;;;;;;17.15;9.18;;;;;;;;;;6171353;23;20025;-71
2022/11/16 10:38:12;;;;;;;15.98;8.95;;;;;;;;;;6173679;23;20025;-72
2022/11/16 10:40:38;;;;;;;14.55;9.02;;;;;;;;;;6177652;23;20192;-71
2022/11/16 10:43:10;;;;;;;14.70;10.07;;;;;;;;;;6173808;23;20025;-72
2022/11/16 10:45:46;;;;;;;16.27;9.10;;;;;;;;;;6176849;23;20090;-72
2022/11/16 10:48:35;;;;;;;15.63;9.20;;;;;;;;;;6174117;23;20032;-75
2022/11/16 10:51:02;;;;;;;18.88;9.55;;;;;;;;;;6172153;23;20020;-71
2022/11/16 10:53:33;;;;;;;14.65;8.75;;;;;;;;;;6174913;23;20025;-71
2022/11/16 10:56:14;;;;;;;16.35;9.35;;;;;;;;;;6174101;23;20195;-72
2022/11/16 10:59:06;;;;;;;25.33;11.80;;;;;;;;;;6176158;23;20027;-73
2022/11/16 11:01:43;;;;;;;20.40;11.75;;;;;;;;;;6165699;23;20084;-73
2022/11/16 11:04:12;;;;;;;15.27;10.52;;;;;;;;;;6174091;23;20429;-73
2022/11/16 11:06:39;;;;;;;19.08;10.48;;;;;;;;;;6167240;23;20029;-73
2022/11/16 11:09:23;;;;;;;17.55;10.75;;;;;;;;;;6174889;23;20547;-73
2022/11/16 11:15:21;;;;;;;17.30;12.15;;;;;;;;;;6175679;23;20025;-72
2022/11/16 11:17:47;;;;;;;24.48;12.35;;;;;;;;;;6175122;23;20017;-72
2022/11/16 11:20:16;;;;;;;16.52;10.95;;;;;;;;;;6176566;23;20497;-72
2022/11/16 11:22:42;;;;;;;19.73;10.35;;;;;;;;;;6174343;23;20036;-73
2022/11/16 11:25:37;;;;;;;16.67;9.32;;;;;;;;;;6176559;23;20032;-72
2022/11/16 11:28:18;;;;;;;23.55;11.43;;;;;;;;;;6184172;23;20040;-73
2022/11/16 11:30:57;;;;;;;30.52;12.57;;;;;;;;;;6168333;23;20095;-72
2022/11/16 11:33:24;;;;;;;31.27;11.00;;;;;;;;;;6173777;23;20044;-74
2022/11/16 11:35:58;;;;;;;18.73;10.27;;;;;;;;;;6172069;23;20021;-73
2022/11/16 11:38:25;;;;;;;20.45;10.20;;;;;;;;;;6169995;23;20084;-72
2022/11/16 11:40:56;;;;;;;16.00;8.50;;;;;;;;;;6177192;23;20558;-71
2022/11/16 11:43:23;;;;;;;16.75;8.50;;;;;;;;;;6176887;23;20024;-72
2022/11/16 11:45:56;;;;;;;9.80;6.57;;;;;;;;;;6174373;23;20115;-74
2022/11/16 11:48:40;;;;;;;14.27;7.40;;;;;;;;;;6173582;23;20105;-73
2022/11/16 11:51:13;;;;;;;9.95;6.07;;;;;;;;;;6174087;23;20043;-72
2022/11/16 11:53:58;;;;;;;13.03;7.07;;;;;;;;;;6173810;23;20021;-72
2022/11/16 11:56:25;;;;;;;13.13;6.90;;;;;;;;;;6167371;23;20080;-73
2022/11/16 11:58:55;;;;;;;12.23;6.15;;;;;;;;;;6170025;23;20407;-77
2022/11/16 12:01:39;;;;;;;14.50;6.18;;;;;;;;;;6170795;23;20025;-70
2022/11/16 12:04:27;;;;;;;18.17;6.30;;;;;;;;;;6173363;23;20032;-70
2022/11/16 12:06:53;;;;;;;10.70;5.72;;;;;;;;;;6158915;23;20059;-69
2022/11/16 12:09:37;;;;;;;14.38;4.85;;;;;;;;;;6174838;23;20017;-70
2022/11/16 12:12:26;;;;;;;13.15;5.15;;;;;;;;;;6173018;23;20461;-71
2022/11/16 12:15:12;;;;;;;18.35;5.15;;;;;;;;;;6173067;23;20457;-70
2022/11/16 12:17:50;;;;;;;17.65;5.57;;;;;;;;;;6143680;23;20105;-72
2022/11/16 12:20:27;;;;;;;13.05;4.93;;;;;;;;;;6175080;23;20068;-71
2022/11/16 12:23:08;;;;;;;21.00;5.82;;;;;;;;;;6174786;23;20021;-71
2022/11/16 12:25:41;;;;;;;13.38;4.63;;;;;;;;;;6174196;23;20029;-71
2022/11/16 12:28:16;;;;;;;14.68;4.25;;;;;;;;;;6175292;23;20021;-71
2022/11/16 12:31:01;;;;;;;9.52;3.85;;;;;;;;;;6171989;23;20079;-71
2022/11/16 12:33:34;;;;;;;15.27;4.38;;;;;;;;;;6173764;23;20048;-70
2022/11/16 12:36:05;;;;;;;12.90;3.97;;;;;;;;;;6173667;23;20051;-70
2022/11/16 12:38:43;;;;;;;16.50;4.80;;;;;;;;;;6173203;23;20449;-69
2022/11/16 12:41:26;;;;;;;11.30;3.85;;;;;;;;;;6175843;23;20329;-72
2022/11/16 12:43:53;;;;;;;20.50;5.45;;;;;;;;;;6184541;23;20381;-71
2022/11/16 12:46:38;;;;;;;14.35;5.13;;;;;;;;;;6165228;23;20078;-71
2022/11/16 12:49:28;;;;;;;10.73;4.10;;;;;;;;;;6172646;23;20100;-69
2022/11/16 12:52:17;;;;;;;10.60;4.43;;;;;;;;;;6172608;23;20759;-75
2022/11/16 12:54:56;;;;;;;15.20;3.90;;;;;;;;;;6164608;23;20029;-71
2022/11/16 12:57:31;;;;;;;11.82;3.78;;;;;;;;;;6173692;23;20129;-72
2022/11/16 12:59:57;;;;;;;31.30;5.53;;;;;;;;;;6169746;23;20029;-72
2022/11/16 13:02:32;;;;;;;13.85;3.60;;;;;;;;;;6173291;23;20032;-74
2022/11/16 13:05:11;;;;;;;11.02;3.17;;;;;;;;;;6165778;23;20050;-78
2022/11/16 13:07:42;;;;;;;12.93;3.00;;;;;;;;;;6159687;23;20025;-72
2022/11/16 13:10:26;;;;;;;15.20;3.30;;;;;;;;;;6175989;23;20100;-73
2022/11/16 13:12:56;;;;;;;12.98;3.00;;;;;;;;;;6174008;23;20067;-73
2022/11/16 13:15:25;;;;;;;9.25;2.95;;;;;;;;;;6174015;23;20028;-73
2022/11/16 13:17:57;;;;;;;11.57;2.75;;;;;;;;;;6177063;23;20402;-73
2022/11/16 13:20:29;;;;;;;14.57;3.25;;;;;;;;;;6175035;23;20083;-73
2022/11/16 13:23:02;;;;;;;11.57;3.85;;;;;;;;;;6174509;23;20289;-72
2022/11/16 13:25:51;;;;;;;13.07;2.63;;;;;;;;;;6175285;23;20052;-75
2022/11/16 13:28:23;;;;;;;7.90;2.38;;;;;;;;;;6168773;23;20332;-72
2022/11/16 13:31:00;;;;;;;11.73;3.00;;;;;;;;;;6171712;23;20032;-71
2022/11/16 13:33:34;;;;;;;12.48;2.70;;;;;;;;;;6173565;23;20260;-72
2022/11/16 13:36:20;;;;;;;13.00;2.97;;;;;;;;;;6175333;23;20052;-72
2022/11/16 13:38:51;;;;;;;12.32;2.70;;;;;;;;;;6174955;23;20326;-78
2022/11/16 13:41:36;;;;;;;12.88;2.85;;;;;;;;;;6173927;23;20120;-71
2022/11/16 13:44:13;;;;;;;11.73;2.97;;;;;;;;;;6172257;23;20114;-71
2022/11/16 13:46:42;;;;;;;10.57;2.88;;;;;;;;;;6174049;23;20021;-71
2022/11/16 13:49:19;;;;;;;17.73;3.95;;;;;;;;;;6181549;23;20330;-71
2022/11/16 13:51:56;;;;;;;11.38;2.83;;;;;;;;;;6182947;23;20445;-70
2022/11/16 13:54:33;;;;;;;14.05;3.38;;;;;;;;;;6172194;23;20581;-70
2022/11/16 13:57:00;;;;;;;11.63;2.83;;;;;;;;;;6175763;23;20045;-70
2022/11/16 13:59:29;;;;;;;12.77;3.33;;;;;;;;;;6175838;23;20017;-71
2022/11/16 14:01:56;;;;;;;11.68;3.00;;;;;;;;;;6176025;23;20405;-71
2022/11/16 14:04:34;;;;;;;12.75;3.33;;;;;;;;;;6175786;23;20029;-74
2022/11/16 14:07:01;;;;;;;11.82;3.17;;;;;;;;;;6176624;23;20127;-70
2022/11/16 14:09:46;;;;;;;13.93;3.10;;;;;;;;;;6175699;23;20020;-72
2022/11/16 14:12:34;;;;;;;15.05;3.80;;;;;;;;;;6176248;23;20039;-71
2022/11/16 14:15:03;;;;;;;6.28;2.50;;;;;;;;;;6173275;23;20036;-72
2022/11/16 14:17:48;;;;;;;13.65;3.10;;;;;;;;;;6176388;23;20028;-71
2022/11/16 14:20:15;;;;;;;17.83;3.58;;;;;;;;;;6175691;23;20143;-71
2022/11/16 14:22:51;;;;;;;11.77;3.15;;;;;;;;;;6177387;23;20025;-71
2022/11/16 14:25:41;;;;;;;10.70;2.70;;;;;;;;;;6176537;23;20120;-71
2022/11/16 14:28:16;;;;;;;11.57;3.03;;;;;;;;;;6177977;23;20358;-72
2022/11/16 14:30:45;;;;;;;10.30;2.83;;;;;;;;;;6173961;23;20457;-71
2022/11/16 14:33:13;;;;;;;7.72;2.63;;;;;;;;;;6175912;23;20342;-71
2022/11/16 14:35:40;;;;;;;13.93;3.03;;;;;;;;;;6180003;23;20025;-72
2022/11/16 14:38:16;;;;;;;12.60;2.60;;;;;;;;;;6181308;23;20370;-72
2022/11/16 14:40:44;;;;;;;10.63;2.50;;;;;;;;;;6174655;23;20524;-72
2022/11/16 14:43:16;;;;;;;13.27;2.55;;;;;;;;;;6190122;23;20026;-73
2022/11/16 14:45:46;;;;;;;10.65;2.47;;;;;;;;;;6194774;23;20021;-73
2022/11/16 14:48:17;;;;;;;10.43;2.67;;;;;;;;;;6177374;23;20168;-72
2022/11/16 14:50:44;;;;;;;8.02;2.55;;;;;;;;;;6176225;23;20467;-71
2022/11/16 14:53:14;;;;;;;9.07;2.47;;;;;;;;;;6178472;23;20028;-73
2022/11/16 14:55:41;;;;;;;9.73;2.85;;;;;;;;;;6176137;23;20119;-72
2022/11/16 14:58:17;;;;;;;14.18;3.03;;;;;;;;;;6177417;23;20025;-73
2022/11/16 15:00:59;;;;;;;11.60;2.75;;;;;;;;;;6176612;23;20114;-73
2022/11/16 15:03:27;;;;;;;9.65;2.67;;;;;;;;;;6178046;23;20017;-72
2022/11/16 15:05:56;;;;;;;12.43;2.97;;;;;;;;;;6178676;23;20037;-72
2022/11/16 15:08:25;;;;;;;10.82;2.85;;;;;;;;;;6176474;23;20043;-71
2022/11/16 15:10:52;;;;;;;12.70;2.83;;;;;;;;;;6175797;23;20563;-75
2022/11/16 15:13:22;;;;;;;11.88;2.83;;;;;;;;;;6175974;23;20641;-73
2022/11/16 15:15:51;;;;;;;15.15;3.25;;;;;;;;;;6175741;23;20041;-74
2022/11/16 15:18:19;;;;;;;12.95;3.20;;;;;;;;;;6175073;23;20025;-73
2022/11/16 15:20:51;;;;;;;13.63;3.20;;;;;;;;;;6177551;23;20535;-73
2022/11/16 15:23:19;;;;;;;14.68;3.38;;;;;;;;;;6176977;23;20501;-73